Time;durP1;ratioP1;P1;durP2;ratioP2;P2;SDS_P1;SDS_P2;PMS_P1;PMS_P2;Temp;Humidity;BMP_temperature;BMP_pressure;BME280_temperature;BME280_humidity;BME280_pressure;Samples;Min_cycle;Max_cycle;Signal;HPM_P1;HPM_P2
2022/01/22 00:00:11;;;;;;;;;;;6.10;99.90;;;;;;5029371;28;19921;-69
2022/01/22 00:02:36;;;;;;;;;;;6.10;99.90;;;;;;5030072;28;19916;-71
2022/01/22 00:05:03;;;;;;;;;;;6.20;99.90;;;;;;5031162;28;19913;-71
2022/01/22 00:07:29;;;;;;;;;;;6.30;99.90;;;;;;5025365;28;20362;-71
2022/01/22 00:10:00;;;;;;;;;;;6.20;99.90;;;;;;5038271;28;19920;-69
2022/01/22 00:12:42;;;;;;;;;;;6.20;99.90;;;;;;5028889;28;19909;-70
2022/01/22 00:15:09;;;;;;;;;;;6.10;99.90;;;;;;5023756;28;20004;-71
2022/01/22 00:17:35;;;;;;;;;;;6.10;99.90;;;;;;5026360;28;19909;-71
2022/01/22 00:20:00;;;;;;;;;;;6.00;99.90;;;;;;5026651;28;20397;-73
2022/01/22 00:22:30;;;;;;;;;;;6.00;99.90;;;;;;5025244;28;20366;-72
2022/01/22 00:25:00;;;;;;;;;;;6.00;99.90;;;;;;5023998;28;19919;-74
2022/01/22 00:27:27;;;;;;;;;;;6.00;99.90;;;;;;5021073;28;19910;-70
2022/01/22 00:29:53;;;;;;;;;;;6.00;99.90;;;;;;5015215;28;20299;-71
2022/01/22 00:32:18;;;;;;;;;;;6.00;99.90;;;;;;5025406;28;19919;-70
2022/01/22 00:34:44;;;;;;;;;;;6.00;99.90;;;;;;5045990;28;20277;-72
2022/01/22 00:37:09;;;;;;;;;;;6.00;99.90;;;;;;5027701;28;19915;-70
2022/01/22 00:39:35;;;;;;;;;;;6.00;99.90;;;;;;5025310;28;19917;-69
2022/01/22 00:42:01;;;;;;;;;;;6.10;99.90;;;;;;5026010;28;19909;-72
2022/01/22 00:44:27;;;;;;;;;;;6.10;99.90;;;;;;5013216;28;20212;-71
2022/01/22 00:46:52;;;;;;;;;;;6.10;99.90;;;;;;5025885;28;20066;-72
2022/01/22 00:49:18;;;;;;;;;;;6.20;99.90;;;;;;5021297;28;19917;-69
2022/01/22 00:51:44;;;;;;;;;;;6.20;99.90;;;;;;5014241;28;20367;-70
2022/01/22 00:54:09;;;;;;;;;;;6.20;99.90;;;;;;5036295;28;19959;-71
2022/01/22 00:56:35;;;;;;;;;;;6.10;99.90;;;;;;5027673;28;20184;-69
2022/01/22 00:59:00;;;;;;;;;;;6.10;99.90;;;;;;5045470;28;19923;-67
2022/01/22 01:01:26;;;;;;;;;;;6.10;99.90;;;;;;5033194;28;19977;-68
2022/01/22 01:03:52;;;;;;;;;;;6.10;99.90;;;;;;5009081;28;19917;-70
2022/01/22 01:06:18;;;;;;;;;;;6.10;99.90;;;;;;5016288;28;19947;-69
2022/01/22 01:08:43;;;;;;;;;;;6.10;99.90;;;;;;5032312;28;20038;-71
2022/01/22 01:11:11;;;;;;;;;;;6.00;99.90;;;;;;5016821;28;19913;-71
2022/01/22 01:13:42;;;;;;;;;;;6.00;99.90;;;;;;5017456;28;19916;-72
2022/01/22 01:16:42;;;;;;;;;;;6.10;99.90;;;;;;5029373;28;19917;-72
2022/01/22 01:35:47;;;;;;;;;;;6.50;99.90;;;;;;4987785;28;19936;-69
2022/01/22 01:38:13;;;;;;;;;;;6.50;99.90;;;;;;5022055;28;19924;-70
2022/01/22 01:40:42;;;;;;;;;;;6.60;99.90;;;;;;5027058;28;19972;-72
2022/01/22 01:43:41;;;;;;;;;;;6.50;99.90;;;;;;5019615;28;20047;-69
2022/01/22 01:46:00;;;;;;;;;;;6.40;99.90;;;;;;5021327;28;20378;-69
2022/01/22 01:48:30;;;;;;;;;;;6.50;99.90;;;;;;5018897;28;20181;-70
2022/01/22 01:50:58;;;;;;;;;;;6.60;99.90;;;;;;5019660;28;19916;-71
2022/01/22 01:58:25;;;;;;;;;;;6.70;99.90;;;;;;5014637;28;20125;-71
2022/01/22 02:00:51;;;;;;;;;;;6.70;99.90;;;;;;5009705;28;19914;-71
2022/01/22 02:03:17;;;;;;;;;;;6.80;99.90;;;;;;4993455;28;20008;-69
2022/01/22 02:05:42;;;;;;;;;;;6.80;99.90;;;;;;5013917;28;19996;-71
2022/01/22 02:08:08;;;;;;;;;;;6.90;99.90;;;;;;5013469;28;19918;-74
2022/01/22 02:10:39;;;;;;;;;;;6.80;99.90;;;;;;5033970;28;19916;-70
2022/01/22 02:24:03;;;;;;;;;;;6.60;99.90;;;;;;5024965;28;19916;-71
2022/01/22 02:26:29;;;;;;;;;;;6.60;99.90;;;;;;5027865;28;20005;-71
2022/01/22 02:28:55;;;;;;;;;;;6.60;99.90;;;;;;5013714;28;19913;-69
2022/01/22 02:37:03;;;;;;;;;;;6.40;99.90;;;;;;5020290;28;19924;-72
2022/01/22 02:39:12;;;;;;;;;;;6.60;99.90;;;;;;5002033;28;20207;-68
2022/01/22 02:41:42;;;;;;;;;;;6.60;99.90;;;;;;5018119;28;20371;-70
2022/01/22 02:44:09;;;;;;;;;;;6.70;99.90;;;;;;5027011;28;19977;-68
2022/01/22 02:46:38;;;;;;;;;;;6.70;99.90;;;;;;5008671;28;19967;-71
2022/01/22 02:49:03;;;;;;;;;;;6.70;99.90;;;;;;5040338;28;19920;-70
2022/01/22 02:51:29;;;;;;;;;;;6.70;99.90;;;;;;5033626;28;19909;-70
2022/01/22 02:53:55;;;;;;;;;;;6.80;99.90;;;;;;5025908;28;19924;-70
2022/01/22 02:56:23;;;;;;;;;;;6.80;99.90;;;;;;5019225;28;20012;-70
2022/01/22 02:58:49;;;;;;;;;;;6.70;99.90;;;;;;5007286;28;19924;-71
2022/01/22 03:01:16;;;;;;;;;;;6.70;99.90;;;;;;5026391;28;20290;-70
2022/01/22 03:03:42;;;;;;;;;;;6.60;99.90;;;;;;5027009;28;19917;-70
2022/01/22 03:06:07;;;;;;;;;;;6.60;99.90;;;;;;5007734;28;19909;-71
2022/01/22 03:08:33;;;;;;;;;;;6.60;99.90;;;;;;5025281;28;19913;-70
2022/01/22 03:11:01;;;;;;;;;;;6.50;99.90;;;;;;5025235;28;19936;-71
2022/01/22 03:19:27;;;;;;;;;;;6.50;99.90;;;;;;4962699;28;19958;-71
2022/01/22 03:22:12;;;;;;;;;;;6.60;99.90;;;;;;5017912;28;19963;-70
2022/01/22 03:27:24;;;;;;;;;;;6.60;99.90;;;;;;5022803;28;19931;-72
2022/01/22 03:29:50;;;;;;;;;;;6.60;99.90;;;;;;5025775;28;20302;-71
2022/01/22 03:32:17;;;;;;;;;;;6.60;99.90;;;;;;5023949;28;19936;-71
2022/01/22 03:34:56;;;;;;;;;;;6.70;99.90;;;;;;5022791;28;22376;-70
2022/01/22 03:37:23;;;;;;;;;;;6.60;99.90;;;;;;5026187;28;19955;-68
2022/01/22 03:39:48;;;;;;;;;;;6.60;99.90;;;;;;5024345;28;19917;-71
2022/01/22 03:42:14;;;;;;;;;;;6.60;99.90;;;;;;5024844;28;19916;-71
2022/01/22 03:44:39;;;;;;;;;;;6.50;99.90;;;;;;5023899;28;19959;-71
2022/01/22 03:47:05;;;;;;;;;;;6.40;99.90;;;;;;5018869;28;19917;-70
2022/01/22 03:49:31;;;;;;;;;;;6.30;99.90;;;;;;5025899;28;20800;-69
2022/01/22 03:51:56;;;;;;;;;;;6.40;99.90;;;;;;5026263;28;20366;-68
2022/01/22 03:54:22;;;;;;;;;;;6.40;99.90;;;;;;5007996;28;19975;-70
2022/01/22 03:56:48;;;;;;;;;;;6.50;99.90;;;;;;5027335;28;20406;-69
2022/01/22 03:59:14;;;;;;;;;;;6.50;99.90;;;;;;5026768;28;19913;-69
2022/01/22 04:09:37;;;;;;;;;;;6.80;99.90;;;;;;5028701;28;19909;-70
2022/01/22 04:12:03;;;;;;;;;;;6.80;99.90;;;;;;5007700;28;19966;-70
2022/01/22 04:14:33;;;;;;;;;;;6.90;99.90;;;;;;5024294;28;20328;-69
2022/01/22 04:24:55;;;;;;;;;;;7.00;99.90;;;;;;5023953;28;19971;-70
2022/01/22 04:27:26;;;;;;;;;;;7.10;99.90;;;;;;5025055;28;19920;-70
2022/01/22 04:29:54;;;;;;;;;;;6.90;99.90;;;;;;5014772;28;19921;-71
2022/01/22 04:32:19;;;;;;;;;;;6.90;99.90;;;;;;5023536;28;19909;-70
2022/01/22 04:34:45;;;;;;;;;;;7.00;99.90;;;;;;5024034;28;19919;-71
2022/01/22 04:37:11;;;;;;;;;;;7.00;99.90;;;;;;5024729;28;20194;-73
2022/01/22 04:39:37;;;;;;;;;;;6.70;99.90;;;;;;5025175;28;19913;-71
2022/01/22 04:42:03;;;;;;;;;;;6.70;99.90;;;;;;5025265;28;19924;-73
2022/01/22 04:44:34;;;;;;;;;;;6.70;99.90;;;;;;5023567;28;19919;-72
2022/01/22 04:47:14;;;;;;;;;;;6.80;99.90;;;;;;5023836;28;19952;-70
2022/01/22 04:55:00;;;;;;;;;;;6.80;99.90;;;;;;5024251;28;19909;-72
2022/01/22 04:57:26;;;;;;;;;;;6.90;99.90;;;;;;5023547;28;19913;-70
2022/01/22 04:59:52;;;;;;;;;;;6.90;99.90;;;;;;5022546;28;20004;-70
2022/01/22 05:02:17;;;;;;;;;;;7.00;99.90;;;;;;5023676;28;20019;-70
2022/01/22 05:04:43;;;;;;;;;;;6.90;99.90;;;;;;5023505;28;19964;-70
2022/01/22 05:07:09;;;;;;;;;;;6.90;99.90;;;;;;5022891;28;19916;-70
2022/01/22 05:09:35;;;;;;;;;;;6.90;99.90;;;;;;5023047;28;20236;-70
2022/01/22 05:12:01;;;;;;;;;;;6.90;99.90;;;;;;5023286;28;19967;-70
2022/01/22 05:14:26;;;;;;;;;;;6.80;99.90;;;;;;5006524;28;19917;-71
2022/01/22 05:16:54;;;;;;;;;;;7.00;99.90;;;;;;5024236;28;19917;-70
2022/01/22 05:19:28;;;;;;;;;;;7.00;99.90;;;;;;5023345;28;19913;-70
2022/01/22 05:21:57;;;;;;;;;;;7.00;99.90;;;;;;5022820;28;19917;-70
2022/01/22 05:24:27;;;;;;;;;;;7.00;99.90;;;;;;5024166;28;19970;-73
2022/01/22 05:27:17;;;;;;;;;;;7.00;99.90;;;;;;5006427;28;20008;-71
2022/01/22 05:37:14;;;;;;;;;;;7.20;99.90;;;;;;5016371;28;19924;-71
2022/01/22 05:39:40;;;;;;;;;;;7.20;99.90;;;;;;5022737;28;19913;-71
2022/01/22 05:42:07;;;;;;;;;;;7.20;99.90;;;;;;5022885;28;19918;-71
2022/01/22 05:44:33;;;;;;;;;;;7.20;99.90;;;;;;5010136;28;20358;-71
2022/01/22 05:47:03;;;;;;;;;;;7.30;99.90;;;;;;5023593;28;19924;-73
2022/01/22 05:49:31;;;;;;;;;;;7.20;99.90;;;;;;5015131;28;20260;-71
2022/01/22 05:51:57;;;;;;;;;;;7.10;99.90;;;;;;5013853;28;20260;-72
2022/01/22 05:59:41;;;;;;;;;;;6.90;99.90;;;;;;5029162;28;20397;-70
2022/01/22 06:02:07;;;;;;;;;;;6.80;99.90;;;;;;5034558;28;19909;-70
2022/01/22 06:04:33;;;;;;;;;;;6.80;99.90;;;;;;5035283;28;19913;-70
2022/01/22 06:06:59;;;;;;;;;;;6.90;99.90;;;;;;5032423;28;19914;-71
2022/01/22 06:09:25;;;;;;;;;;;6.90;99.90;;;;;;5036296;28;20117;-71
2022/01/22 06:11:55;;;;;;;;;;;6.90;99.90;;;;;;5041125;28;20420;-71
2022/01/22 06:14:21;;;;;;;;;;;6.90;99.90;;;;;;5038161;28;19935;-71
2022/01/22 06:16:47;;;;;;;;;;;6.90;99.90;;;;;;5024899;28;19910;-71
2022/01/22 06:19:12;;;;;;;;;;;6.80;99.90;;;;;;5019057;28;19924;-71
2022/01/22 06:21:38;;;;;;;;;;;6.80;99.90;;;;;;5020095;28;19929;-70
2022/01/22 06:24:03;;;;;;;;;;;6.80;99.90;;;;;;5022100;28;19984;-70
2022/01/22 06:26:29;;;;;;;;;;;6.80;99.90;;;;;;5027703;28;19925;-71
2022/01/22 06:28:54;;;;;;;;;;;6.80;99.90;;;;;;5024156;28;20008;-70
2022/01/22 06:31:20;;;;;;;;;;;6.90;99.90;;;;;;5028330;28;20001;-70
2022/01/22 06:33:46;;;;;;;;;;;7.00;99.90;;;;;;5028766;28;19913;-70
2022/01/22 06:36:12;;;;;;;;;;;7.00;99.90;;;;;;5010014;28;19920;-71
2022/01/22 06:38:37;;;;;;;;;;;7.00;99.90;;;;;;5009722;28;19909;-70
2022/01/22 06:43:47;;;;;;;;;;;7.00;99.90;;;;;;5027820;28;19971;-70
2022/01/22 06:46:12;;;;;;;;;;;7.00;99.90;;;;;;5030044;28;19913;-68
2022/01/22 06:48:38;;;;;;;;;;;7.00;99.90;;;;;;5026777;28;20198;-70
2022/01/22 06:51:03;;;;;;;;;;;7.00;99.90;;;;;;5037959;28;19917;-69
2022/01/22 06:53:29;;;;;;;;;;;7.00;99.90;;;;;;5036382;28;20015;-71
2022/01/22 06:55:58;;;;;;;;;;;7.00;99.90;;;;;;5027273;28;19913;-70
2022/01/22 06:58:24;;;;;;;;;;;7.00;99.90;;;;;;5019585;28;19909;-70
2022/01/22 07:00:50;;;;;;;;;;;6.90;99.90;;;;;;5022571;28;19917;-73
2022/01/22 07:03:15;;;;;;;;;;;6.90;99.90;;;;;;5020385;28;20182;-70
2022/01/22 07:05:41;;;;;;;;;;;6.90;99.90;;;;;;5001586;28;20458;-69
2022/01/22 07:08:06;;;;;;;;;;;6.90;99.90;;;;;;5000153;28;20012;-70
2022/01/22 07:10:32;;;;;;;;;;;6.90;99.90;;;;;;5015355;28;20339;-70
2022/01/22 07:12:57;;;;;;;;;;;6.90;99.90;;;;;;5017724;28;19917;-69
2022/01/22 07:15:23;;;;;;;;;;;6.90;99.90;;;;;;5016798;28;20383;-69
2022/01/22 07:17:48;;;;;;;;;;;6.90;99.90;;;;;;5013448;28;19933;-72
2022/01/22 07:20:17;;;;;;;;;;;6.90;99.90;;;;;;5017621;28;20286;-71
2022/01/22 07:23:00;;;;;;;;;;;7.00;99.90;;;;;;5022680;28;20012;-72
2022/01/22 07:25:26;;;;;;;;;;;7.00;99.90;;;;;;5026200;28;19918;-70
2022/01/22 07:27:51;;;;;;;;;;;7.00;99.90;;;;;;5009816;28;20445;-70
2022/01/22 07:30:17;;;;;;;;;;;7.00;99.90;;;;;;5017319;28;20133;-70
2022/01/22 07:32:44;;;;;;;;;;;7.00;99.90;;;;;;5006785;28;19912;-71
2022/01/22 07:35:13;;;;;;;;;;;7.00;99.90;;;;;;5018952;28;20343;-70
2022/01/22 07:37:39;;;;;;;;;;;7.10;99.90;;;;;;5006334;28;19948;-70
2022/01/22 07:40:06;;;;;;;;;;;7.10;99.90;;;;;;5025407;28;19917;-69
2022/01/22 07:42:32;;;;;;;;;;;7.00;99.90;;;;;;5019333;28;20390;-69
2022/01/22 07:44:58;;;;;;;;;;;7.00;99.90;;;;;;5023159;28;20003;-70
2022/01/22 07:47:23;;;;;;;;;;;7.00;99.90;;;;;;5019029;28;19913;-70
2022/01/22 07:49:49;;;;;;;;;;;7.00;99.90;;;;;;5015679;28;19909;-70
2022/01/22 07:52:14;;;;;;;;;;;7.00;99.90;;;;;;4998134;28;19931;-70
2022/01/22 07:54:40;;;;;;;;;;;7.00;99.90;;;;;;5023140;28;20234;-69
2022/01/22 07:57:05;;;;;;;;;;;6.90;99.90;;;;;;5020725;28;19917;-71
2022/01/22 07:59:32;;;;;;;;;;;6.90;99.90;;;;;;5013030;28;19928;-70
2022/01/22 08:01:58;;;;;;;;;;;6.90;99.90;;;;;;5023973;28;20009;-70
2022/01/22 08:04:24;;;;;;;;;;;7.00;99.90;;;;;;5017359;28;19965;-70
2022/01/22 08:06:51;;;;;;;;;;;7.10;99.90;;;;;;5030791;28;20358;-70
2022/01/22 08:09:16;;;;;;;;;;;7.20;99.90;;;;;;5023309;28;20023;-71
2022/01/22 08:11:42;;;;;;;;;;;7.10;99.90;;;;;;5026214;28;19916;-70
2022/01/22 08:14:09;;;;;;;;;;;7.20;99.90;;;;;;5019083;28;22660;-70
2022/01/22 08:16:35;;;;;;;;;;;7.30;99.90;;;;;;5023386;28;19913;-69
2022/01/22 08:19:00;;;;;;;;;;;7.40;99.90;;;;;;5020589;28;19967;-69
2022/01/22 08:21:26;;;;;;;;;;;7.30;99.90;;;;;;5022549;28;19960;-69
2022/01/22 08:23:51;;;;;;;;;;;7.30;99.90;;;;;;5018029;28;19971;-69
2022/01/22 08:26:21;;;;;;;;;;;7.30;99.90;;;;;;5013515;28;19913;-71
2022/01/22 08:29:01;;;;;;;;;;;7.20;99.90;;;;;;5018362;28;20000;-70
2022/01/22 08:36:44;;;;;;;;;;;7.30;99.90;;;;;;5017142;28;19920;-71
2022/01/22 08:39:10;;;;;;;;;;;7.40;99.90;;;;;;5007470;28;20395;-71
2022/01/22 08:41:36;;;;;;;;;;;7.50;99.90;;;;;;5024094;28;19932;-71
2022/01/22 08:44:02;;;;;;;;;;;7.40;99.90;;;;;;5021115;28;19932;-70
2022/01/22 08:46:28;;;;;;;;;;;7.40;99.90;;;;;;5023629;28;20428;-71
2022/01/22 08:48:54;;;;;;;;;;;7.30;99.90;;;;;;5008913;28;19949;-70
2022/01/22 08:51:20;;;;;;;;;;;7.30;99.90;;;;;;5020770;28;19987;-69
2022/01/22 08:53:46;;;;;;;;;;;7.30;99.90;;;;;;5022766;28;19988;-69
2022/01/22 08:56:12;;;;;;;;;;;7.30;99.90;;;;;;5023691;28;20042;-71
2022/01/22 08:58:38;;;;;;;;;;;7.30;99.90;;;;;;5018130;28;19940;-69
2022/01/22 09:01:03;;;;;;;;;;;7.40;99.90;;;;;;5027199;28;19917;-70
2022/01/22 09:03:29;;;;;;;;;;;7.40;99.90;;;;;;5029221;28;19917;-73
2022/01/22 09:05:55;;;;;;;;;;;7.30;99.90;;;;;;5022363;28;20003;-69
2022/01/22 09:08:23;;;;;;;;;;;7.40;99.90;;;;;;5020775;28;19913;-74
2022/01/22 09:10:50;;;;;;;;;;;7.40;99.90;;;;;;5022076;28;19977;-73
2022/01/22 09:13:15;;;;;;;;;;;7.40;99.90;;;;;;5008801;28;19905;-75
2022/01/22 09:15:41;;;;;;;;;;;7.30;99.90;;;;;;5017183;28;19913;-71
2022/01/22 09:18:07;;;;;;;;;;;7.30;99.90;;;;;;5012843;28;19968;-70
2022/01/22 09:23:02;;;;;;;;;;;7.30;99.90;;;;;;5014769;28;19916;-71
2022/01/22 09:25:28;;;;;;;;;;;7.30;99.90;;;;;;5010858;28;19996;-71
2022/01/22 09:27:53;;;;;;;;;;;7.40;99.90;;;;;;4999981;28;20454;-69
2022/01/22 09:30:19;;;;;;;;;;;7.40;99.90;;;;;;5014476;28;20116;-70
2022/01/22 09:32:44;;;;;;;;;;;7.30;99.90;;;;;;5018726;28;20362;-70
2022/01/22 09:35:10;;;;;;;;;;;7.30;99.90;;;;;;5021866;28;19917;-69
2022/01/22 09:37:35;;;;;;;;;;;7.30;99.90;;;;;;5006756;28;19917;-71
2022/01/22 09:40:01;;;;;;;;;;;7.30;99.90;;;;;;5019453;28;19914;-70
2022/01/22 09:42:27;;;;;;;;;;;7.30;99.90;;;;;;5021578;28;19920;-70
2022/01/22 09:44:53;;;;;;;;;;;7.30;99.90;;;;;;5028228;28;19913;-70
2022/01/22 09:47:20;;;;;;;;;;;7.40;99.90;;;;;;5022199;28;19920;-70
2022/01/22 09:49:46;;;;;;;;;;;7.40;99.90;;;;;;5022117;28;20333;-71
2022/01/22 09:52:12;;;;;;;;;;;7.40;99.90;;;;;;5016641;28;20005;-69
2022/01/22 09:54:37;;;;;;;;;;;7.50;99.90;;;;;;5029523;28;19991;-70
2022/01/22 09:57:04;;;;;;;;;;;7.60;99.90;;;;;;5029062;28;20016;-71
2022/01/22 09:59:30;;;;;;;;;;;7.60;99.90;;;;;;5030413;28;19913;-70
2022/01/22 10:02:19;;;;;;;;;;;7.50;99.90;;;;;;5013824;28;19924;-72
2022/01/22 10:04:48;;;;;;;;;;;7.50;99.90;;;;;;5032712;28;19921;-70
2022/01/22 10:07:18;;;;;;;;;;;7.50;99.90;;;;;;5012800;28;19909;-73
2022/01/22 10:09:59;;;;;;;;;;;7.40;99.90;;;;;;5028090;28;19923;-70
2022/01/22 10:12:26;;;;;;;;;;;7.40;99.90;;;;;;5030783;28;19959;-72
2022/01/22 10:15:08;;;;;;;;;;;7.40;99.90;;;;;;5025042;28;19908;-71
2022/01/22 10:17:40;;;;;;;;;;;7.40;99.90;;;;;;5028880;28;19971;-69
2022/01/22 10:20:20;;;;;;;;;;;7.40;99.90;;;;;;5010890;28;19979;-70
2022/01/22 10:22:46;;;;;;;;;;;7.40;99.90;;;;;;5014242;28;19975;-71
2022/01/22 10:25:27;;;;;;;;;;;7.40;99.90;;;;;;5022009;28;19913;-71
2022/01/22 10:27:56;;;;;;;;;;;7.40;99.90;;;;;;5020844;28;20255;-68
2022/01/22 10:30:22;;;;;;;;;;;7.30;99.90;;;;;;5022900;28;20004;-70
2022/01/22 10:33:09;;;;;;;;;;;7.30;99.90;;;;;;5022073;28;20059;-72
2022/01/22 10:35:34;;;;;;;;;;;7.40;99.90;;;;;;5018557;28;20008;-71
2022/01/22 10:38:01;;;;;;;;;;;7.40;99.90;;;;;;5000327;28;20004;-69
2022/01/22 10:40:28;;;;;;;;;;;7.40;99.90;;;;;;5021370;28;20524;-71
2022/01/22 10:43:11;;;;;;;;;;;7.50;99.90;;;;;;5017886;28;19949;-71
2022/01/22 10:45:40;;;;;;;;;;;7.60;99.90;;;;;;5017736;28;20338;-70
2022/01/22 10:48:12;;;;;;;;;;;7.50;99.90;;;;;;4999132;28;20394;-67
2022/01/22 10:50:38;;;;;;;;;;;7.50;99.90;;;;;;5017351;28;19916;-74
2022/01/22 10:53:03;;;;;;;;;;;7.50;99.90;;;;;;5021355;28;19913;-71
2022/01/22 10:55:29;;;;;;;;;;;7.60;99.90;;;;;;5015259;28;19913;-71
2022/01/22 10:58:04;;;;;;;;;;;7.60;99.90;;;;;;5017731;28;19920;-71
2022/01/22 11:00:29;;;;;;;;;;;7.70;99.90;;;;;;5020858;28;19959;-69
2022/01/22 11:02:55;;;;;;;;;;;7.70;99.90;;;;;;5022713;28;19952;-70
2022/01/22 11:05:37;;;;;;;;;;;7.70;99.90;;;;;;5020049;28;19924;-70
2022/01/22 11:08:10;;;;;;;;;;;7.70;99.90;;;;;;5016580;28;19917;-70
2022/01/22 11:10:35;;;;;;;;;;;7.70;99.90;;;;;;5020452;28;20383;-71
2022/01/22 11:13:01;;;;;;;;;;;7.70;99.90;;;;;;5007794;28;19921;-70
2022/01/22 11:15:27;;;;;;;;;;;7.70;99.90;;;;;;5020388;28;19917;-72
2022/01/22 11:17:54;;;;;;;;;;;7.70;99.90;;;;;;5022678;28;20016;-73
2022/01/22 11:20:21;;;;;;;;;;;7.80;99.90;;;;;;5021314;28;20021;-72
2022/01/22 11:22:47;;;;;;;;;;;7.70;99.90;;;;;;5024627;28;20374;-68
2022/01/22 11:25:12;;;;;;;;;;;7.70;99.90;;;;;;5010880;28;20357;-71
2022/01/22 11:27:38;;;;;;;;;;;7.80;99.90;;;;;;5022906;28;20008;-70
2022/01/22 11:30:06;;;;;;;;;;;7.70;99.90;;;;;;5023489;28;20032;-70
2022/01/22 11:32:35;;;;;;;;;;;7.70;99.90;;;;;;5023458;28;19917;-72
2022/01/22 11:35:02;;;;;;;;;;;7.60;99.90;;;;;;5028602;28;19924;-70
2022/01/22 11:37:33;;;;;;;;;;;7.60;99.90;;;;;;5013088;28;19959;-72
2022/01/22 11:40:08;;;;;;;;;;;7.50;99.90;;;;;;5028620;28;20168;-74
2022/01/22 11:42:56;;;;;;;;;;;7.60;99.90;;;;;;5030469;28;19913;-72
2022/01/22 11:45:27;;;;;;;;;;;7.70;99.90;;;;;;5043328;28;19913;-69
2022/01/22 11:48:12;;;;;;;;;;;7.60;99.90;;;;;;5015309;28;20288;-72
2022/01/22 11:50:38;;;;;;;;;;;7.50;99.90;;;;;;5022066;28;19923;-71
2022/01/22 11:53:22;;;;;;;;;;;7.50;99.90;;;;;;5036634;28;19916;-70
2022/01/22 11:56:06;;;;;;;;;;;7.30;99.90;;;;;;5038310;28;19932;-72
2022/01/22 11:58:32;;;;;;;;;;;7.30;99.90;;;;;;5034310;28;19928;-70
2022/01/22 12:00:57;;;;;;;;;;;7.40;99.90;;;;;;5016014;28;19976;-72
2022/01/22 12:03:22;;;;;;;;;;;7.40;99.90;;;;;;5031142;28;20075;-71
2022/01/22 12:05:48;;;;;;;;;;;7.50;99.90;;;;;;5052379;28;19909;-70
2022/01/22 12:08:15;;;;;;;;;;;7.40;99.90;;;;;;5032572;28;19916;-71
2022/01/22 12:10:42;;;;;;;;;;;7.40;99.90;;;;;;5039130;28;19920;-71
2022/01/22 12:16:05;;;;;;;;;;;7.40;99.90;;;;;;5021438;28;20032;-71
2022/01/22 12:18:32;;;;;;;;;;;7.40;99.90;;;;;;5017680;28;19948;-72
2022/01/22 12:23:29;;;;;;;;;;;7.40;99.90;;;;;;5024141;28;19914;-71
2022/01/22 12:25:55;;;;;;;;;;;7.40;99.90;;;;;;5012439;28;19917;-69
2022/01/22 12:28:33;;;;;;;;;;;7.40;99.90;;;;;;5018824;28;19940;-69
2022/01/22 12:31:04;;;;;;;;;;;7.30;99.90;;;;;;5030470;28;19932;-71
2022/01/22 12:33:29;;;;;;;;;;;7.30;99.90;;;;;;5022964;28;19914;-71
2022/01/22 12:36:02;;;;;;;;;;;7.40;99.90;;;;;;5029326;28;19968;-72
2022/01/22 12:38:37;;;;;;;;;;;7.40;99.90;;;;;;5017766;28;19924;-71
2022/01/22 12:43:51;;;;;;;;;;;7.30;99.90;;;;;;5022856;28;19996;-73
2022/01/22 12:46:16;;;;;;;;;;;7.20;99.90;;;;;;5021210;28;20367;-70
2022/01/22 12:48:42;;;;;;;;;;;7.20;99.90;;;;;;5025421;28;19909;-71
2022/01/22 12:51:09;;;;;;;;;;;7.20;99.90;;;;;;5024593;28;20408;-72
2022/01/22 12:53:35;;;;;;;;;;;7.20;99.90;;;;;;5022793;28;19991;-71
2022/01/22 12:58:27;;;;;;;;;;;7.30;99.90;;;;;;5025342;28;19917;-70
2022/01/22 13:01:11;;;;;;;;;;;7.30;99.90;;;;;;5023196;28;19921;-71
2022/01/22 13:03:38;;;;;;;;;;;7.30;99.90;;;;;;5020255;28;19917;-70
2022/01/22 13:06:04;;;;;;;;;;;7.20;99.90;;;;;;5032952;28;20232;-70
2022/01/22 13:08:31;;;;;;;;;;;7.20;99.90;;;;;;5031152;28;19953;-73
2022/01/22 13:11:01;;;;;;;;;;;7.20;99.90;;;;;;5030095;28;19917;-71
2022/01/22 13:13:27;;;;;;;;;;;7.20;99.90;;;;;;5031825;28;20330;-71
2022/01/22 13:16:03;;;;;;;;;;;7.20;99.90;;;;;;5034199;28;19966;-72
2022/01/22 13:18:41;;;;;;;;;;;7.10;99.90;;;;;;5024055;28;19909;-70
2022/01/22 13:21:08;;;;;;;;;;;7.10;99.90;;;;;;5032923;28;20007;-69
2022/01/22 13:23:34;;;;;;;;;;;7.10;99.90;;;;;;5032374;28;19949;-69
2022/01/22 13:25:59;;;;;;;;;;;7.10;99.90;;;;;;5036834;28;19988;-71
2022/01/22 13:28:28;;;;;;;;;;;7.10;99.90;;;;;;5030559;28;19917;-71
2022/01/22 13:30:59;;;;;;;;;;;7.10;99.90;;;;;;5029037;28;19952;-71
2022/01/22 13:33:48;;;;;;;;;;;7.10;99.90;;;;;;5027202;28;19924;-73
2022/01/22 13:49:45;;;;;;;;;;;7.00;99.90;;;;;;5030066;28;19920;-70
2022/01/22 13:52:13;;;;;;;;;;;6.90;99.90;;;;;;5029374;28;19932;-70
2022/01/22 13:54:49;;;;;;;;;;;6.90;99.90;;;;;;5027539;28;19916;-72
2022/01/22 13:57:15;;;;;;;;;;;6.90;99.90;;;;;;5012656;28;19913;-75
2022/01/22 13:59:42;;;;;;;;;;;6.90;99.90;;;;;;5010651;28;19952;-75
2022/01/22 14:04:40;;;;;;;;;;;6.90;99.90;;;;;;5022983;28;20114;-69
2022/01/22 14:07:38;;;;;;;;;;;6.90;99.90;;;;;;5019785;28;20124;-71
2022/01/22 14:10:05;;;;;;;;;;;6.80;99.90;;;;;;5017753;28;20654;-70
2022/01/22 14:12:50;;;;;;;;;;;6.90;99.90;;;;;;5025895;28;20554;-69
2022/01/22 14:15:28;;;;;;;;;;;6.90;99.90;;;;;;5047692;28;19932;-72
2022/01/22 14:20:38;;;;;;;;;;;6.80;99.90;;;;;;5015611;28;20425;-72
2022/01/22 14:23:12;;;;;;;;;;;6.80;99.90;;;;;;5015534;28;19913;-70
2022/01/22 14:25:55;;;;;;;;;;;6.80;99.90;;;;;;5016221;28;19925;-72
2022/01/22 14:28:35;;;;;;;;;;;6.80;99.90;;;;;;5001041;28;20423;-71
2022/01/22 14:31:01;;;;;;;;;;;6.70;99.90;;;;;;5018593;28;19948;-73
2022/01/22 14:33:40;;;;;;;;;;;6.70;99.90;;;;;;5019550;28;19917;-71
2022/01/22 14:36:05;;;;;;;;;;;6.80;99.90;;;;;;5017519;28;19917;-71
2022/01/22 14:38:35;;;;;;;;;;;6.80;99.90;;;;;;5016573;28;20015;-69
2022/01/22 14:46:37;;;;;;;;;;;6.70;99.90;;;;;;5035400;28;19993;-70
2022/01/22 14:49:03;;;;;;;;;;;6.80;99.90;;;;;;5019934;28;19909;-68
2022/01/22 14:51:29;;;;;;;;;;;6.80;99.90;;;;;;5027684;28;19920;-72
2022/01/22 14:53:54;;;;;;;;;;;6.90;99.90;;;;;;5027602;28;20292;-71
2022/01/22 14:56:20;;;;;;;;;;;6.80;99.90;;;;;;5027292;28;19916;-73
2022/01/22 14:58:45;;;;;;;;;;;6.80;99.90;;;;;;5026594;28;19909;-72
2022/01/22 15:01:11;;;;;;;;;;;6.80;99.90;;;;;;5030820;28;19920;-69
2022/01/22 15:03:36;;;;;;;;;;;6.80;99.90;;;;;;5031691;28;20269;-71
2022/01/22 15:06:02;;;;;;;;;;;6.90;99.90;;;;;;5035569;28;19909;-71
2022/01/22 15:08:27;;;;;;;;;;;6.90;99.90;;;;;;5044773;28;19913;-71
2022/01/22 15:10:53;;;;;;;;;;;6.90;99.90;;;;;;5042857;28;19973;-68
2022/01/22 15:13:18;;;;;;;;;;;6.90;99.90;;;;;;5031592;28;20259;-71
2022/01/22 15:15:47;;;;;;;;;;;7.00;99.90;;;;;;5031024;28;19973;-71
2022/01/22 15:18:25;;;;;;;;;;;7.10;99.90;;;;;;5036660;28;19909;-70
2022/01/22 15:20:51;;;;;;;;;;;7.10;99.90;;;;;;5033108;28;19917;-71
2022/01/22 15:23:16;;;;;;;;;;;7.10;99.90;;;;;;5031720;28;20281;-71
2022/01/22 15:25:42;;;;;;;;;;;7.10;99.90;;;;;;5029437;28;20159;-70
2022/01/22 15:28:07;;;;;;;;;;;7.10;99.90;;;;;;5025667;28;20310;-71
2022/01/22 15:30:35;;;;;;;;;;;7.10;99.90;;;;;;5040450;28;19962;-69
2022/01/22 15:33:17;;;;;;;;;;;7.10;99.90;;;;;;5039700;28;19913;-72
2022/01/22 15:35:43;;;;;;;;;;;7.20;99.90;;;;;;5011726;28;20346;-73
2022/01/22 15:38:08;;;;;;;;;;;7.10;99.90;;;;;;5032682;28;19917;-72
2022/01/22 15:40:35;;;;;;;;;;;7.10;99.90;;;;;;5028783;28;19935;-73
2022/01/22 15:43:01;;;;;;;;;;;7.10;99.90;;;;;;5047480;28;19917;-70
2022/01/22 15:45:27;;;;;;;;;;;7.00;99.90;;;;;;5039877;28;19936;-70
2022/01/22 15:47:54;;;;;;;;;;;7.00;99.90;;;;;;5008974;28;19939;-72
2022/01/22 15:50:20;;;;;;;;;;;7.00;99.90;;;;;;5026486;28;20614;-71
2022/01/22 15:52:45;;;;;;;;;;;7.00;99.90;;;;;;5027272;28;20359;-71
2022/01/22 15:55:11;;;;;;;;;;;7.10;99.90;;;;;;5027368;28;19920;-71
2022/01/22 15:57:38;;;;;;;;;;;7.00;99.90;;;;;;5026050;28;20437;-71
2022/01/22 16:00:05;;;;;;;;;;;6.90;99.90;;;;;;5027208;28;19924;-70
2022/01/22 16:02:31;;;;;;;;;;;7.00;99.90;;;;;;5010996;28;19913;-69
2022/01/22 16:04:59;;;;;;;;;;;7.00;99.90;;;;;;5009880;28;20004;-70
2022/01/22 16:07:24;;;;;;;;;;;6.90;99.90;;;;;;5010495;28;19916;-69
2022/01/22 16:09:51;;;;;;;;;;;6.80;99.90;;;;;;5030276;28;19910;-71
2022/01/22 16:12:20;;;;;;;;;;;6.90;99.90;;;;;;5034727;28;19909;-70
2022/01/22 16:14:46;;;;;;;;;;;6.80;99.90;;;;;;5046969;28;20323;-70
2022/01/22 16:17:15;;;;;;;;;;;6.80;99.90;;;;;;5009305;28;19928;-70
2022/01/22 16:19:40;;;;;;;;;;;6.80;99.90;;;;;;5025201;28;19917;-70
2022/01/22 16:22:06;;;;;;;;;;;6.80;99.90;;;;;;5015313;28;19944;-69
2022/01/22 16:24:31;;;;;;;;;;;6.90;99.90;;;;;;5012455;28;20318;-71
2022/01/22 16:26:57;;;;;;;;;;;6.90;99.90;;;;;;5017059;28;19909;-71
2022/01/22 16:29:25;;;;;;;;;;;6.90;99.90;;;;;;5010422;28;20011;-74
2022/01/22 16:31:53;;;;;;;;;;;6.90;99.90;;;;;;5014243;28;20362;-72
2022/01/22 16:34:19;;;;;;;;;;;6.90;99.90;;;;;;5005756;28;19936;-71
2022/01/22 16:36:45;;;;;;;;;;;6.90;99.90;;;;;;5001792;28;20244;-71
2022/01/22 16:39:10;;;;;;;;;;;6.90;99.90;;;;;;5011533;28;19914;-70
2022/01/22 16:41:38;;;;;;;;;;;6.90;99.90;;;;;;4992342;28;20413;-70